Time,TemperatureF,DewpointF,PressureIn,WindDirection,WindDirectionDegrees,WindSpeedMPH,WindSpeedGustMPH,Humidity,HourlyPrecipIn,Conditions,Clouds,dailyrainin,SoftwareType,DateUTC
2013-01-05 00:01:00,39.2,37.4,30.17,NNE,23,1.1,1.8,93,0.00,,,0.00,WUHU216HW,2013-01-05 08:01:00,
2013-01-05 00:06:00,39.2,37.4,30.17,NNE,23,0.4,1.8,93,0.00,,,0.00,WUHU216HW,2013-01-05 08:06:00,
2013-01-05 00:11:00,39.2,37.4,30.17,NNE,23,0.0,1.1,93,0.00,,,0.00,WUHU216HW,2013-01-05 08:11:00,
2013-01-05 00:16:00,39.2,37.4,30.17,NNE,23,0.9,0.9,93,0.00,,,0.00,WUHU216HW,2013-01-05 08:16:00,
2013-01-05 00:21:00,39.2,37.4,30.17,NE,45,0.9,3.1,93,0.00,,,0.00,WUHU216HW,2013-01-05 08:21:00,
2013-01-05 00:26:00,39.1,37.2,30.17,NE,45,1.1,3.1,93,0.00,,,0.00,WUHU216HW,2013-01-05 08:26:00,
2013-01-05 00:31:00,39.1,37.2,30.16,ENE,68,3.4,3.4,93,0.00,,,0.00,WUHU216HW,2013-01-05 08:31:00,
2013-01-05 00:36:00,38.9,37.0,30.17,NE,45,1.3,3.4,93,0.00,,,0.00,WUHU216HW,2013-01-05 08:36:00,
2013-01-05 00:41:00,38.9,37.0,30.16,NE,45,1.1,2.5,93,0.00,,,0.00,WUHU216HW,2013-01-05 08:41:00,
2013-01-05 00:46:00,38.9,37.0,30.16,ENE,68,3.4,3.4,93,0.00,,,0.00,WUHU216HW,2013-01-05 08:46:00,
2013-01-05 00:51:00,39.1,37.2,30.16,NE,45,2.2,3.4,93,0.00,,,0.00,WUHU216HW,2013-01-05 08:51:00,
2013-01-05 00:56:00,39.1,37.2,30.16,North,0,0.9,3.1,93,0.00,,,0.00,WUHU216HW,2013-01-05 08:56:00,
2013-01-05 01:01:00,39.1,37.2,30.16,NNW,338,0.0,1.1,93,0.00,,,0.00,WUHU216HW,2013-01-05 09:01:00,
2013-01-05 01:06:00,39.2,37.4,30.16,North,0,0.4,0.9,93,0.00,,,0.00,WUHU216HW,2013-01-05 09:06:00,
2013-01-05 01:11:00,39.1,37.2,30.16,NE,45,1.1,1.6,93,0.00,,,0.00,WUHU216HW,2013-01-05 09:11:00,
2013-01-05 01:16:00,39.1,37.2,30.16,ENE,68,1.8,1.8,93,0.00,,,0.00,WUHU216HW,2013-01-05 09:16:00,
2013-01-05 01:21:00,39.1,37.2,30.16,ENE,68,1.8,1.8,93,0.00,,,0.00,WUHU216HW,2013-01-05 09:21:00,
2013-01-05 01:48:00,39.6,37.7,30.16,SW,225,1.8,1.8,93,0.00,,,0.00,WUHU216HW,2013-01-05 09:48:00,
2013-01-05 01:53:00,39.6,37.7,30.16,SW,225,0.2,1.8,93,0.00,,,0.00,WUHU216HW,2013-01-05 09:53:00,
2013-01-05 01:58:00,39.6,37.7,30.16,SW,225,0.0,1.8,93,0.00,,,0.00,WUHU216HW,2013-01-05 09:58:00,
2013-01-05 02:03:00,39.6,37.7,30.16,ENE,68,0.4,1.1,93,0.00,,,0.00,WUHU216HW,2013-01-05 10:03:00,
2013-01-05 02:08:00,39.6,37.7,30.17,SE,135,0.4,1.1,93,0.00,,,0.00,WUHU216HW,2013-01-05 10:08:00,
2013-01-05 02:13:00,39.6,37.7,30.17,SE,135,0.0,1.6,93,0.00,,,0.00,WUHU216HW,2013-01-05 10:13:00,
2013-01-05 02:18:00,39.8,37.9,30.17,SSW,203,0.2,1.6,93,0.00,,,0.00,WUHU216HW,2013-01-05 10:18:00,
2013-01-05 02:23:00,39.6,37.7,30.17,ESE,113,0.9,1.1,93,0.00,,,0.00,WUHU216HW,2013-01-05 10:23:00,
2013-01-05 02:28:00,39.8,37.9,30.17,SSE,158,0.7,1.1,93,0.00,,,0.00,WUHU216HW,2013-01-05 10:28:00,
2013-01-05 02:33:00,39.8,37.9,30.17,SE,135,1.6,1.6,93,0.00,,,0.00,WUHU216HW,2013-01-05 10:33:00,
2013-01-05 02:38:00,39.8,37.9,30.17,SE,135,0.0,1.6,93,0.00,,,0.00,WUHU216HW,2013-01-05 10:38:00,
2013-01-05 02:43:00,39.8,37.9,30.17,SE,135,0.0,1.6,93,0.00,,,0.00,WUHU216HW,2013-01-05 10:43:00,
2013-01-05 03:05:00,40.0,38.1,30.18,South,180,2.7,2.7,93,0.00,,,0.00,WUHU216HW,2013-01-05 11:05:00,
2013-01-05 03:10:00,40.3,38.4,30.18,SSE,158,2.5,2.7,93,0.00,,,0.00,WUHU216HW,2013-01-05 11:10:00,
2013-01-05 03:15:00,40.3,38.4,30.18,ESE,113,3.1,3.4,93,0.00,,,0.00,WUHU216HW,2013-01-05 11:15:00,
2013-01-05 03:20:00,40.3,38.4,30.18,SE,135,2.2,3.4,93,0.00,,,0.00,WUHU216HW,2013-01-05 11:20:00,
2013-01-05 03:25:00,40.5,38.6,30.18,ESE,113,0.0,2.9,93,0.00,,,0.00,WUHU216HW,2013-01-05 11:25:00,
2013-01-05 03:30:00,40.5,38.6,30.18,North,0,1.8,1.8,93,0.00,,,0.00,WUHU216HW,2013-01-05 11:30:00,
2013-01-05 03:35:00,40.5,38.6,30.17,North,0,2.0,2.0,93,0.00,,,0.00,WUHU216HW,2013-01-05 11:35:00,
2013-01-05 03:40:00,40.3,38.4,30.17,North,0,0.4,2.0,93,0.00,,,0.00,WUHU216HW,2013-01-05 11:40:00,
2013-01-05 03:45:00,40.3,38.4,30.17,North,0,0.4,1.8,93,0.00,,,0.00,WUHU216HW,2013-01-05 11:45:00,
2013-01-05 03:50:00,40.3,38.4,30.17,North,0,0.2,1.1,93,0.00,,,0.00,WUHU216HW,2013-01-05 11:50:00,
2013-01-05 03:55:00,40.3,38.4,30.16,North,0,0.0,1.1,93,0.00,,,0.00,WUHU216HW,2013-01-05 11:55:00,
2013-01-05 04:00:00,40.3,38.4,30.16,NE,45,1.8,1.8,93,0.01,,,0.01,WUHU216HW,2013-01-05 12:00:00,
2013-01-05 04:05:00,40.3,38.4,30.17,NNE,23,1.1,1.8,93,0.01,,,0.01,WUHU216HW,2013-01-05 12:05:00,
2013-01-05 04:10:00,40.3,38.4,30.17,NNE,23,0.0,1.3,93,0.01,,,0.01,WUHU216HW,2013-01-05 12:10:00,
2013-01-05 04:15:00,40.3,38.4,30.17,NNW,338,0.7,0.9,93,0.01,,,0.01,WUHU216HW,2013-01-05 12:15:00,
2013-01-05 04:20:00,40.3,38.4,30.17,WNW,293,0.9,1.1,93,0.01,,,0.01,WUHU216HW,2013-01-05 12:20:00,
2013-01-05 04:25:00,40.3,38.4,30.17,WNW,293,0.9,1.1,93,0.01,,,0.01,WUHU216HW,2013-01-05 12:25:00,
2013-01-05 04:30:00,40.3,38.4,30.17,NW,315,0.4,1.3,93,0.01,,,0.01,WUHU216HW,2013-01-05 12:30:00,
2013-01-05 04:35:00,40.3,38.4,30.17,NE,45,0.7,1.3,93,0.01,,,0.01,WUHU216HW,2013-01-05 12:35:00,
2013-01-05 04:40:00,40.5,38.6,30.17,WNW,293,1.8,1.8,93,0.02,,,0.02,WUHU216HW,2013-01-05 12:40:00,
2013-01-05 04:45:00,40.3,38.4,30.17,NW,315,0.7,1.8,93,0.02,,,0.02,WUHU216HW,2013-01-05 12:45:00,
2013-01-05 04:50:00,40.3,38.4,30.18,North,0,0.7,1.1,93,0.02,,,0.02,WUHU216HW,2013-01-05 12:50:00,
2013-01-05 04:55:00,40.3,38.4,30.17,NE,45,2.5,2.5,93,0.01,,,0.02,WUHU216HW,2013-01-05 12:55:00,
2013-01-05 05:00:00,40.3,38.4,30.17,ENE,68,2.5,3.4,93,0.01,,,0.02,WUHU216HW,2013-01-05 13:00:00,
2013-01-05 05:05:00,40.1,38.3,30.17,NE,45,1.1,3.4,93,0.01,,,0.02,WUHU216HW,2013-01-05 13:05:00,
2013-01-05 05:10:00,40.1,38.3,30.17,NE,45,0.0,2.9,93,0.02,,,0.03,WUHU216HW,2013-01-05 13:10:00,
2013-01-05 05:15:00,40.1,38.3,30.17,NE,45,0.4,1.1,93,0.02,,,0.03,WUHU216HW,2013-01-05 13:15:00,
2013-01-05 05:20:00,40.1,38.3,30.17,NE,45,0.0,0.4,93,0.02,,,0.03,WUHU216HW,2013-01-05 13:20:00,
2013-01-05 05:25:00,40.1,38.3,30.17,NE,45,0.4,0.9,93,0.02,,,0.03,WUHU216HW,2013-01-05 13:25:00,
2013-01-05 05:30:00,40.3,38.4,30.17,NE,45,0.0,0.9,93,0.03,,,0.04,WUHU216HW,2013-01-05 13:30:00,
2013-01-05 05:35:00,40.3,38.4,30.17,NE,45,0.7,0.7,93,0.02,,,0.04,WUHU216HW,2013-01-05 13:35:00,
2013-01-05 05:40:00,40.3,38.4,30.17,ENE,68,2.5,2.5,93,0.02,,,0.04,WUHU216HW,2013-01-05 13:40:00,
2013-01-05 05:45:00,40.1,38.3,30.17,NNE,23,1.1,2.5,93,0.02,,,0.04,WUHU216HW,2013-01-05 13:45:00,
2013-01-05 05:50:00,40.1,38.3,30.18,NNE,23,0.0,2.5,93,0.02,,,0.04,WUHU216HW,2013-01-05 13:50:00,
2013-01-05 05:55:00,40.1,38.3,30.18,NNE,23,0.0,0.2,93,0.02,,,0.04,WUHU216HW,2013-01-05 13:55:00,
2013-01-05 06:00:00,40.1,38.3,30.18,East,90,0.0,0.4,93,0.03,,,0.05,WUHU216HW,2013-01-05 14:00:00,
2013-01-05 06:05:00,40.1,38.3,30.18,NNE,23,0.9,1.6,93,0.02,,,0.05,WUHU216HW,2013-01-05 14:05:00,
2013-01-05 06:10:00,40.0,38.1,30.18,NE,45,0.4,1.6,93,0.02,,,0.05,WUHU216HW,2013-01-05 14:10:00,
2013-01-05 06:15:00,40.0,38.1,30.18,NE,45,0.9,1.3,93,0.02,,,0.05,WUHU216HW,2013-01-05 14:15:00,
2013-01-05 06:20:00,40.0,38.1,30.18,NE,45,0.4,0.9,93,0.02,,,0.05,WUHU216HW,2013-01-05 14:20:00,
2013-01-05 06:25:00,40.0,38.1,30.18,NNW,338,0.7,1.3,93,0.02,,,0.05,WUHU216HW,2013-01-05 14:25:00,
2013-01-05 06:30:00,40.0,38.1,30.18,NNE,23,1.1,1.3,93,0.01,,,0.05,WUHU216HW,2013-01-05 14:30:00,
2013-01-05 06:35:00,40.0,38.1,30.18,NE,45,1.1,1.1,93,0.01,,,0.05,WUHU216HW,2013-01-05 14:35:00,
2013-01-05 06:40:00,40.0,38.1,30.17,ENE,68,2.0,2.0,93,0.02,,,0.06,WUHU216HW,2013-01-05 14:40:00,
2013-01-05 06:45:00,39.8,37.9,30.18,NE,45,0.7,2.0,93,0.02,,,0.06,WUHU216HW,2013-01-05 14:45:00,
2013-01-05 06:50:00,39.8,37.9,30.18,NNE,23,1.1,1.8,93,0.02,,,0.06,WUHU216HW,2013-01-05 14:50:00,
2013-01-05 06:55:00,39.8,37.9,30.17,NNE,23,1.1,1.1,93,0.02,,,0.06,WUHU216HW,2013-01-05 14:55:00,
2013-01-05 07:00:00,39.8,37.9,30.17,NE,45,0.0,1.1,93,0.01,,,0.06,WUHU216HW,2013-01-05 15:00:00,
2013-01-05 07:05:00,39.8,37.9,30.17,NNE,23,0.0,0.4,93,0.01,,,0.06,WUHU216HW,2013-01-05 15:05:00,
2013-01-05 07:10:00,39.8,37.9,30.17,North,0,0.2,1.1,93,0.01,,,0.06,WUHU216HW,2013-01-05 15:10:00,
2013-01-05 07:15:00,39.8,37.9,30.17,North,0,0.0,1.6,93,0.02,,,0.06,WUHU216HW,2013-01-05 15:15:00,
2013-01-05 07:20:00,39.6,37.7,30.17,North,0,0.4,1.6,93,0.02,,,0.07,WUHU216HW,2013-01-05 15:20:00,
2013-01-05 07:25:00,39.6,37.7,30.17,NNE,23,0.2,1.6,93,0.02,,,0.07,WUHU216HW,2013-01-05 15:25:00,
2013-01-05 07:30:00,39.6,37.7,30.17,North,0,0.4,0.9,93,0.03,,,0.08,WUHU216HW,2013-01-05 15:30:00,
2013-01-05 07:35:00,39.6,37.7,30.17,WSW,248,0.0,0.9,93,0.04,,,0.08,WUHU216HW,2013-01-05 15:35:00,
2013-01-05 07:40:00,39.6,37.7,30.16,NE,45,0.0,1.8,93,0.03,,,0.09,WUHU216HW,2013-01-05 15:40:00,
2013-01-05 07:45:00,39.6,37.7,30.17,SSE,158,0.4,1.8,93,0.04,,,0.10,WUHU216HW,2013-01-05 15:45:00,
2013-01-05 07:50:00,39.4,37.5,30.16,West,270,0.0,0.9,93,0.04,,,0.10,WUHU216HW,2013-01-05 15:50:00,
2013-01-05 07:55:00,39.4,37.5,30.17,SSE,158,0.2,2.7,93,0.04,,,0.10,WUHU216HW,2013-01-05 15:55:00,
2013-01-05 08:00:00,39.4,37.5,30.17,South,180,1.8,2.7,93,0.05,,,0.11,WUHU216HW,2013-01-05 16:00:00,
2013-01-05 08:05:00,39.4,37.5,30.18,South,180,0.0,2.2,93,0.05,,,0.11,WUHU216HW,2013-01-05 16:05:00,
2013-01-05 08:10:00,39.4,37.5,30.18,ENE,68,0.7,2.0,93,0.05,,,0.11,WUHU216HW,2013-01-05 16:10:00,
2013-01-05 08:15:00,39.4,37.5,30.17,NNE,23,1.8,3.1,93,0.04,,,0.11,WUHU216HW,2013-01-05 16:15:00,
2013-01-05 08:20:00,39.4,37.5,30.17,ENE,68,1.8,3.1,93,0.04,,,0.11,WUHU216HW,2013-01-05 16:20:00,
2013-01-05 08:25:00,39.4,37.5,30.18,NE,45,0.7,1.8,93,0.04,,,0.11,WUHU216HW,2013-01-05 16:25:00,
2013-01-05 08:30:00,39.4,37.5,30.17,North,0,0.9,1.8,93,0.04,,,0.12,WUHU216HW,2013-01-05 16:30:00,
2013-01-05 08:35:00,39.6,37.7,30.18,North,0,1.1,1.8,93,0.03,,,0.12,WUHU216HW,2013-01-05 16:35:00,
2013-01-05 08:40:00,39.6,37.7,30.17,North,0,0.4,2.2,93,0.02,,,0.12,WUHU216HW,2013-01-05 16:40:00,
2013-01-05 08:45:00,39.8,37.9,30.17,NE,45,2.2,2.2,93,0.03,,,0.13,WUHU216HW,2013-01-05 16:45:00,
2013-01-05 08:50:00,40.0,38.1,30.17,NNE,23,0.2,2.2,93,0.03,,,0.13,WUHU216HW,2013-01-05 16:50:00,
2013-01-05 08:55:00,40.0,38.1,30.17,NNE,23,0.2,1.8,93,0.03,,,0.13,WUHU216HW,2013-01-05 16:55:00,
2013-01-05 09:05:00,40.0,38.1,30.16,NE,45,6.7,6.7,93,0.03,,,0.14,WUHU216HW,2013-01-05 17:05:00,
2013-01-05 09:10:00,40.3,38.7,30.16,NNE,23,3.8,6.7,94,0.03,,,0.14,WUHU216HW,2013-01-05 17:10:00,
2013-01-05 09:15:00,40.7,39.1,30.15,NE,45,1.1,4.5,94,0.03,,,0.14,WUHU216HW,2013-01-05 17:15:00,
2013-01-05 09:20:00,40.7,39.1,30.15,NNE,23,4.0,4.3,94,0.03,,,0.14,WUHU216HW,2013-01-05 17:20:00,
2013-01-05 09:25:00,41.0,39.4,30.15,East,90,2.9,7.2,94,0.02,,,0.14,WUHU216HW,2013-01-05 17:25:00,
2013-01-05 09:30:00,41.4,39.8,30.16,ENE,68,1.8,7.2,94,0.02,,,0.14,WUHU216HW,2013-01-05 17:30:00,
2013-01-05 09:35:00,41.6,39.7,30.16,SE,135,7.6,7.6,93,0.02,,,0.14,WUHU216HW,2013-01-05 17:35:00,
2013-01-05 09:40:00,41.8,39.9,30.16,ESE,113,3.6,9.6,93,0.02,,,0.14,WUHU216HW,2013-01-05 17:40:00,
2013-01-05 09:45:00,41.9,40.1,30.16,East,90,4.7,9.6,93,0.01,,,0.14,WUHU216HW,2013-01-05 17:45:00,
2013-01-05 09:50:00,41.9,40.1,30.16,ESE,113,6.9,10.5,93,0.01,,,0.14,WUHU216HW,2013-01-05 17:50:00,
2013-01-05 09:55:00,41.9,40.1,30.16,ENE,68,9.8,10.5,93,0.01,,,0.15,WUHU216HW,2013-01-05 17:55:00,
2013-01-05 10:00:00,41.9,40.1,30.15,ENE,68,7.6,11.0,93,0.01,,,0.15,WUHU216HW,2013-01-05 18:00:00,
2013-01-05 10:05:00,42.1,40.0,30.14,ENE,68,9.2,12.5,92,0.01,,,0.15,WUHU216HW,2013-01-05 18:05:00,
2013-01-05 10:10:00,42.3,40.1,30.15,NNE,23,1.8,12.5,92,0.02,,,0.16,WUHU216HW,2013-01-05 18:10:00,
2013-01-05 10:15:00,42.5,40.1,30.16,SE,135,9.4,9.8,91,0.02,,,0.16,WUHU216HW,2013-01-05 18:15:00,
2013-01-05 10:20:00,42.5,40.1,30.15,SE,135,7.4,10.3,91,0.02,,,0.16,WUHU216HW,2013-01-05 18:20:00,
2013-01-05 10:25:00,42.5,39.8,30.15,ESE,113,6.9,11.0,90,0.02,,,0.16,WUHU216HW,2013-01-05 18:25:00,
2013-01-05 10:30:00,42.5,39.8,30.14,NE,45,13.9,13.9,90,0.02,,,0.16,WUHU216HW,2013-01-05 18:30:00,
2013-01-05 10:35:00,42.7,40.0,30.14,ESE,113,10.5,18.3,90,0.02,,,0.16,WUHU216HW,2013-01-05 18:35:00,
2013-01-05 10:40:00,42.7,40.0,30.14,ENE,68,7.4,18.3,90,0.02,,,0.16,WUHU216HW,2013-01-05 18:40:00,
2013-01-05 10:45:00,42.8,40.1,30.13,SSE,158,12.1,14.1,90,0.02,,,0.16,WUHU216HW,2013-01-05 18:45:00,
2013-01-05 10:50:00,42.8,40.1,30.13,ESE,113,7.8,14.1,90,0.02,,,0.16,WUHU216HW,2013-01-05 18:50:00,
2013-01-05 10:55:00,43.0,40.1,30.13,ENE,68,13.2,13.4,89,0.01,,,0.16,WUHU216HW,2013-01-05 18:55:00,
2013-01-05 11:00:00,43.2,40.2,30.14,SSE,158,13.4,13.4,89,0.01,,,0.16,WUHU216HW,2013-01-05 19:00:00,
2013-01-05 11:05:00,43.4,40.4,30.13,SSE,158,4.7,13.4,89,0.00,,,0.16,WUHU216HW,2013-01-05 19:05:00,
2013-01-05 11:10:00,43.4,40.4,30.14,ESE,113,10.5,11.9,89,0.00,,,0.16,WUHU216HW,2013-01-05 19:10:00,
2013-01-05 11:15:00,43.6,40.6,30.14,SE,135,2.2,11.9,89,0.00,,,0.16,WUHU216HW,2013-01-05 19:15:00,
2013-01-05 11:20:00,43.6,40.6,30.14,NNW,338,0.9,7.6,89,0.00,,,0.16,WUHU216HW,2013-01-05 19:20:00,
2013-01-05 11:25:00,43.6,40.6,30.14,NNW,338,0.9,6.3,89,0.00,,,0.16,WUHU216HW,2013-01-05 19:25:00,
2013-01-05 11:55:00,44.1,40.8,30.13,ESE,113,3.4,6.5,88,0.00,,,0.16,WUHU216HW,2013-01-05 19:55:00,
2013-01-05 12:00:00,44.1,41.1,30.14,ESE,113,3.1,13.4,89,0.00,,,0.16,WUHU216HW,2013-01-05 20:00:00,
2013-01-05 12:05:00,44.3,41.0,30.13,NNE,23,5.4,13.4,88,0.00,,,0.16,WUHU216HW,2013-01-05 20:05:00,
2013-01-05 12:10:00,44.3,41.0,30.13,North,0,2.5,15.0,88,0.00,,,0.16,WUHU216HW,2013-01-05 20:10:00,
2013-01-05 12:15:00,44.5,41.1,30.13,East,90,6.3,15.0,88,0.00,,,0.16,WUHU216HW,2013-01-05 20:15:00,
2013-01-05 12:20:00,44.3,40.7,30.13,ENE,68,7.6,9.4,87,0.00,,,0.16,WUHU216HW,2013-01-05 20:20:00,
2013-01-05 12:25:00,44.5,40.9,30.12,ENE,68,6.3,9.4,87,0.00,,,0.16,WUHU216HW,2013-01-05 20:25:00,
2013-01-05 12:30:00,44.5,40.9,30.12,ENE,68,7.6,8.5,87,0.00,,,0.16,WUHU216HW,2013-01-05 20:30:00,
2013-01-05 12:35:00,44.3,40.3,30.11,ESE,113,5.8,9.8,86,0.00,,,0.16,WUHU216HW,2013-01-05 20:35:00,
2013-01-05 12:40:00,44.3,40.7,30.11,NE,45,5.8,9.8,87,0.00,,,0.16,WUHU216HW,2013-01-05 20:40:00,
2013-01-05 12:45:00,44.3,40.7,30.11,ESE,113,6.5,9.8,87,0.00,,,0.16,WUHU216HW,2013-01-05 20:45:00,
2013-01-05 12:50:00,44.3,40.7,30.11,ESE,113,11.0,11.0,87,0.00,,,0.16,WUHU216HW,2013-01-05 20:50:00,
2013-01-05 12:55:00,44.3,40.7,30.11,ENE,68,4.9,11.0,87,0.00,,,0.16,WUHU216HW,2013-01-05 20:55:00,
2013-01-05 13:00:00,44.3,40.7,30.11,ESE,113,4.3,9.4,87,0.00,,,0.16,WUHU216HW,2013-01-05 21:00:00,
2013-01-05 13:05:00,44.5,40.9,30.11,East,90,7.6,9.4,87,0.00,,,0.16,WUHU216HW,2013-01-05 21:05:00,
2013-01-05 13:10:00,44.5,40.9,30.11,SE,135,5.1,9.6,87,0.00,,,0.16,WUHU216HW,2013-01-05 21:10:00,
2013-01-05 13:15:00,44.5,40.9,30.10,East,90,9.4,9.6,87,0.00,,,0.16,WUHU216HW,2013-01-05 21:15:00,
2013-01-05 13:20:00,44.5,40.9,30.11,SSE,158,5.4,11.2,87,0.00,,,0.16,WUHU216HW,2013-01-05 21:20:00,
2013-01-05 13:25:00,44.3,40.7,30.10,South,180,3.4,11.2,87,0.00,,,0.16,WUHU216HW,2013-01-05 21:25:00,
2013-01-05 13:30:00,44.3,40.7,30.11,SE,135,6.7,8.1,87,0.00,,,0.16,WUHU216HW,2013-01-05 21:30:00,
2013-01-05 13:35:00,44.3,40.7,30.10,NE,45,6.3,9.2,87,0.00,,,0.16,WUHU216HW,2013-01-05 21:35:00,
2013-01-05 13:40:00,44.3,40.7,30.10,ESE,113,3.4,9.2,87,0.00,,,0.16,WUHU216HW,2013-01-05 21:40:00,
2013-01-05 13:45:00,44.3,40.7,30.10,ESE,113,10.5,10.5,87,0.00,,,0.16,WUHU216HW,2013-01-05 21:45:00,
2013-01-05 13:50:00,44.3,40.7,30.09,ESE,113,2.0,10.5,87,0.00,,,0.16,WUHU216HW,2013-01-05 21:50:00,
2013-01-05 13:55:00,44.3,40.7,30.09,SW,225,4.5,10.3,87,0.00,,,0.16,WUHU216HW,2013-01-05 21:55:00,
2013-01-05 14:00:00,44.3,40.7,30.10,South,180,7.6,10.3,87,0.00,,,0.16,WUHU216HW,2013-01-05 22:00:00,
2013-01-05 14:05:00,44.5,40.9,30.09,SSE,158,6.0,10.5,87,0.00,,,0.16,WUHU216HW,2013-01-05 22:05:00,
2013-01-05 14:10:00,44.5,40.9,30.10,SE,135,2.9,10.5,87,0.00,,,0.16,WUHU216HW,2013-01-05 22:10:00,
2013-01-05 14:15:00,44.6,41.1,30.10,ESE,113,2.9,7.2,87,0.00,,,0.16,WUHU216HW,2013-01-05 22:15:00,
2013-01-05 14:20:00,44.6,40.7,30.10,ESE,113,7.6,8.3,86,0.00,,,0.16,WUHU216HW,2013-01-05 22:20:00,
2013-01-05 14:25:00,44.6,40.7,30.10,SSW,203,3.6,8.3,86,0.00,,,0.16,WUHU216HW,2013-01-05 22:25:00,
2013-01-05 14:30:00,44.6,40.7,30.10,SSE,158,12.1,12.1,86,0.00,,,0.16,WUHU216HW,2013-01-05 22:30:00,
2013-01-05 14:35:00,44.6,40.7,30.10,ESE,113,3.8,12.1,86,0.00,,,0.16,WUHU216HW,2013-01-05 22:35:00,
2013-01-05 14:40:00,44.6,41.1,30.10,SE,135,8.1,10.5,87,0.00,,,0.16,WUHU216HW,2013-01-05 22:40:00,
2013-01-05 14:45:00,44.5,40.5,30.10,ENE,68,8.9,10.5,86,0.00,,,0.16,WUHU216HW,2013-01-05 22:45:00,
2013-01-05 14:50:00,44.5,40.5,30.10,ENE,68,7.6,11.0,86,0.00,,,0.16,WUHU216HW,2013-01-05 22:50:00,
2013-01-05 14:55:00,44.6,40.7,30.09,ENE,68,3.1,11.0,86,0.00,,,0.16,WUHU216HW,2013-01-05 22:55:00,
2013-01-05 15:00:00,44.6,40.4,30.10,ESE,113,9.2,10.5,85,0.00,,,0.16,WUHU216HW,2013-01-05 23:00:00,
2013-01-05 15:05:00,44.6,40.7,30.10,NE,45,9.2,9.4,86,0.00,,,0.16,WUHU216HW,2013-01-05 23:05:00,
2013-01-05 15:10:00,44.8,40.6,30.10,ESE,113,4.7,12.5,85,0.00,,,0.16,WUHU216HW,2013-01-05 23:10:00,
2013-01-05 15:15:00,44.8,40.9,30.10,SE,135,3.6,12.5,86,0.00,,,0.16,WUHU216HW,2013-01-05 23:15:00,
2013-01-05 15:20:00,44.8,40.6,30.09,SSE,158,11.4,11.4,85,0.00,,,0.16,WUHU216HW,2013-01-05 23:20:00,
2013-01-05 15:25:00,44.8,40.6,30.09,ENE,68,6.9,11.4,85,0.00,,,0.16,WUHU216HW,2013-01-05 23:25:00,
2013-01-05 15:30:00,44.8,40.6,30.09,East,90,12.8,12.8,85,0.00,,,0.16,WUHU216HW,2013-01-05 23:30:00,
2013-01-05 15:35:00,44.8,40.6,30.09,SSW,203,5.6,12.8,85,0.00,,,0.16,WUHU216HW,2013-01-05 23:35:00,
2013-01-05 15:40:00,44.8,40.6,30.09,East,90,9.2,13.4,85,0.00,,,0.16,WUHU216HW,2013-01-05 23:40:00,
2013-01-05 15:45:00,44.8,40.6,30.09,SE,135,5.8,13.4,85,0.00,,,0.16,WUHU216HW,2013-01-05 23:45:00,
2013-01-05 15:50:00,44.8,40.6,30.09,ESE,113,8.7,12.3,85,0.00,,,0.16,WUHU216HW,2013-01-05 23:50:00,
2013-01-05 15:55:00,44.8,40.6,30.09,SSE,158,4.5,10.1,85,0.00,,,0.16,WUHU216HW,2013-01-05 23:55:00,
2013-01-05 16:00:00,44.6,40.4,30.08,SE,135,3.1,9.2,85,0.00,,,0.16,WUHU216HW,2013-01-06 00:00:00,
2013-01-05 16:05:00,44.8,40.6,30.08,East,90,15.4,15.4,85,0.00,,,0.16,WUHU216HW,2013-01-06 00:05:00,
2013-01-05 16:10:00,44.8,40.6,30.08,North,0,4.3,15.4,85,0.00,,,0.16,WUHU216HW,2013-01-06 00:10:00,
2013-01-05 16:15:00,44.8,40.6,30.08,SSE,158,9.8,9.8,85,0.00,,,0.16,WUHU216HW,2013-01-06 00:15:00,
2013-01-05 16:20:00,44.8,40.6,30.07,SW,225,5.1,11.4,85,0.00,,,0.16,WUHU216HW,2013-01-06 00:20:00,
2013-01-05 16:25:00,44.8,40.6,30.07,SE,135,6.7,11.4,85,0.00,,,0.16,WUHU216HW,2013-01-06 00:25:00,
2013-01-05 16:30:00,44.8,40.6,30.07,East,90,4.5,9.8,85,0.00,,,0.16,WUHU216HW,2013-01-06 00:30:00,
2013-01-05 16:35:00,44.8,40.6,30.07,SE,135,6.3,9.8,85,0.00,,,0.16,WUHU216HW,2013-01-06 00:35:00,
2013-01-05 16:40:00,44.8,40.6,30.07,SSE,158,6.3,12.8,85,0.00,,,0.16,WUHU216HW,2013-01-06 00:40:00,
2013-01-05 16:45:00,44.8,40.3,30.07,SSE,158,8.1,12.8,84,0.00,,,0.16,WUHU216HW,2013-01-06 00:45:00,
2013-01-05 16:50:00,44.8,40.3,30.06,SE,135,6.0,8.1,84,0.00,,,0.16,WUHU216HW,2013-01-06 00:50:00,
2013-01-05 16:55:00,44.8,40.3,30.07,SSE,158,6.3,10.1,84,0.00,,,0.16,WUHU216HW,2013-01-06 00:55:00,
2013-01-05 17:01:00,44.8,40.3,30.07,SE,135,8.5,10.1,84,0.00,,,0.16,WUHU216HW,2013-01-06 01:01:00,
2013-01-05 17:06:00,44.8,40.3,30.07,SE,135,9.2,9.6,84,0.00,,,0.16,WUHU216HW,2013-01-06 01:06:00,
2013-01-05 17:11:00,45.0,40.1,30.07,SSE,158,3.1,9.8,83,0.00,,,0.16,WUHU216HW,2013-01-06 01:11:00,
2013-01-05 17:16:00,45.0,40.1,30.07,East,90,4.9,9.8,83,0.00,,,0.16,WUHU216HW,2013-01-06 01:16:00,
2013-01-05 17:21:00,45.0,40.1,30.07,SE,135,4.9,11.2,83,0.00,,,0.16,WUHU216HW,2013-01-06 01:21:00,
2013-01-05 17:26:00,45.0,40.1,30.07,SSE,158,8.1,11.2,83,0.00,,,0.16,WUHU216HW,2013-01-06 01:26:00,
2013-01-05 17:31:00,45.0,40.1,30.07,SSE,158,3.4,8.1,83,0.00,,,0.16,WUHU216HW,2013-01-06 01:31:00,
2013-01-05 17:36:00,45.0,40.5,30.07,ESE,113,4.5,6.3,84,0.00,,,0.16,WUHU216HW,2013-01-06 01:36:00,
2013-01-05 17:41:00,45.0,40.1,30.08,SE,135,7.4,7.4,83,0.00,,,0.16,WUHU216HW,2013-01-06 01:41:00,
2013-01-05 17:46:00,45.0,40.5,30.08,South,180,2.5,7.4,84,0.00,,,0.16,WUHU216HW,2013-01-06 01:46:00,
2013-01-05 17:51:00,45.0,40.5,30.07,SE,135,3.4,4.3,84,0.00,,,0.16,WUHU216HW,2013-01-06 01:51:00,
2013-01-05 17:56:00,45.0,40.5,30.07,SE,135,2.2,5.6,84,0.00,,,0.16,WUHU216HW,2013-01-06 01:56:00,
2013-01-05 18:01:00,45.0,40.5,30.07,SSE,158,4.5,6.9,84,0.00,,,0.16,WUHU216HW,2013-01-06 02:01:00,
2013-01-05 18:06:00,45.0,40.5,30.07,SW,225,4.0,6.9,84,0.00,,,0.16,WUHU216HW,2013-01-06 02:06:00,
2013-01-05 18:11:00,44.8,40.3,30.08,SW,225,2.7,4.7,84,0.00,,,0.16,WUHU216HW,2013-01-06 02:11:00,
2013-01-05 18:16:00,44.6,40.2,30.08,SE,135,3.4,4.7,84,0.00,,,0.16,WUHU216HW,2013-01-06 02:16:00,
2013-01-05 18:21:00,44.6,40.2,30.08,SE,135,7.8,9.2,84,0.00,,,0.16,WUHU216HW,2013-01-06 02:21:00,
2013-01-05 18:26:00,44.5,40.0,30.08,SSE,158,5.4,9.2,84,0.00,,,0.16,WUHU216HW,2013-01-06 02:26:00,
2013-01-05 18:31:00,44.5,40.0,30.08,SW,225,1.8,6.0,84,0.00,,,0.16,WUHU216HW,2013-01-06 02:31:00,
2013-01-05 18:36:00,44.5,40.0,30.09,SSE,158,6.5,6.5,84,0.00,,,0.16,WUHU216HW,2013-01-06 02:36:00,
2013-01-05 18:41:00,44.3,39.4,30.09,ESE,113,3.4,6.9,83,0.00,,,0.16,WUHU216HW,2013-01-06 02:41:00,
2013-01-05 18:46:00,44.5,39.6,30.08,SSE,158,5.1,7.6,83,0.00,,,0.16,WUHU216HW,2013-01-06 02:46:00,
2013-01-05 18:51:00,44.5,39.6,30.09,WNW,293,3.4,7.6,83,0.00,,,0.16,WUHU216HW,2013-01-06 02:51:00,
2013-01-05 18:56:00,44.5,39.6,30.09,West,270,4.7,5.6,83,0.00,,,0.16,WUHU216HW,2013-01-06 02:56:00,
2013-01-05 19:01:00,44.3,39.4,30.09,SW,225,3.1,5.4,83,0.00,,,0.16,WUHU216HW,2013-01-06 03:01:00,
2013-01-05 19:06:00,44.3,39.8,30.09,NNW,338,0.4,3.1,84,0.00,,,0.16,WUHU216HW,2013-01-06 03:06:00,
2013-01-05 19:11:00,44.3,39.8,30.09,SSE,158,1.1,3.6,84,0.00,,,0.16,WUHU216HW,2013-01-06 03:11:00,
2013-01-05 19:16:00,44.3,39.8,30.09,SW,225,0.9,3.6,84,0.00,,,0.16,WUHU216HW,2013-01-06 03:16:00,
2013-01-05 19:21:00,44.1,39.6,30.08,SW,225,1.1,2.5,84,0.00,,,0.16,WUHU216HW,2013-01-06 03:21:00,
2013-01-05 19:26:00,44.1,39.6,30.08,North,0,1.6,2.2,84,0.00,,,0.16,WUHU216HW,2013-01-06 03:26:00,
2013-01-05 19:31:00,43.9,39.4,30.08,North,0,0.9,1.6,84,0.00,,,0.16,WUHU216HW,2013-01-06 03:31:00,
2013-01-05 19:36:00,43.9,39.7,30.08,NE,45,1.1,1.6,85,0.00,,,0.16,WUHU216HW,2013-01-06 03:36:00,
2013-01-05 19:41:00,43.7,39.5,30.08,NNE,23,0.4,2.0,85,0.00,,,0.16,WUHU216HW,2013-01-06 03:41:00,
2013-01-05 19:46:00,43.6,39.3,30.08,ENE,68,0.0,2.0,85,0.00,,,0.16,WUHU216HW,2013-01-06 03:46:00,
2013-01-05 19:51:00,43.2,39.0,30.08,NNE,23,0.9,1.8,85,0.00,,,0.16,WUHU216HW,2013-01-06 03:51:00,
2013-01-05 19:56:00,43.2,39.0,30.08,ENE,68,2.5,2.5,85,0.00,,,0.16,WUHU216HW,2013-01-06 03:56:00,
2013-01-05 20:01:00,42.8,38.6,30.08,NE,45,1.6,2.9,85,0.00,,,0.16,WUHU216HW,2013-01-06 04:01:00,
2013-01-05 20:06:00,42.8,38.9,30.08,NE,45,0.7,2.9,86,0.00,,,0.16,WUHU216HW,2013-01-06 04:06:00,
2013-01-05 20:11:00,42.7,38.4,30.08,ENE,68,1.8,1.8,85,0.00,,,0.16,WUHU216HW,2013-01-06 04:11:00,
2013-01-05 20:16:00,42.5,38.3,30.08,NE,45,1.1,2.0,85,0.00,,,0.16,WUHU216HW,2013-01-06 04:16:00,
2013-01-05 20:21:00,42.5,38.3,30.09,NW,315,1.1,2.0,85,0.00,,,0.16,WUHU216HW,2013-01-06 04:21:00,
2013-01-05 20:26:00,42.3,38.3,30.08,West,270,0.4,1.1,86,0.00,,,0.16,WUHU216HW,2013-01-06 04:26:00,
2013-01-05 20:31:00,42.3,38.3,30.09,SE,135,0.9,0.9,86,0.00,,,0.16,WUHU216HW,2013-01-06 04:31:00,
2013-01-05 20:36:00,42.3,38.3,30.09,WNW,293,0.4,1.8,86,0.00,,,0.16,WUHU216HW,2013-01-06 04:36:00,
2013-01-05 20:41:00,42.1,38.2,30.09,SE,135,2.0,2.0,86,0.00,,,0.16,WUHU216HW,2013-01-06 04:41:00,
2013-01-05 20:46:00,42.3,38.3,30.09,SE,135,0.9,2.5,86,0.00,,,0.16,WUHU216HW,2013-01-06 04:46:00,
2013-01-05 20:51:00,42.3,38.7,30.09,SE,135,2.2,3.1,87,0.00,,,0.16,WUHU216HW,2013-01-06 04:51:00,
2013-01-05 20:56:00,42.5,38.9,30.09,SE,135,0.4,3.1,87,0.00,,,0.16,WUHU216HW,2013-01-06 04:56:00,
2013-01-05 21:01:00,42.5,38.9,30.09,SE,135,0.7,2.0,87,0.00,,,0.16,WUHU216HW,2013-01-06 05:01:00,
2013-01-05 21:06:00,42.7,39.1,30.09,SE,135,4.9,4.9,87,0.01,,,0.16,WUHU216HW,2013-01-06 05:06:00,
2013-01-05 21:11:00,42.7,39.1,30.08,SSE,158,4.0,4.9,87,0.01,,,0.17,WUHU216HW,2013-01-06 05:11:00,
2013-01-05 21:16:00,42.7,39.3,30.08,SSE,158,5.1,5.1,88,0.01,,,0.17,WUHU216HW,2013-01-06 05:16:00,
2013-01-05 21:21:00,42.7,39.3,30.09,SSE,158,1.8,5.1,88,0.01,,,0.17,WUHU216HW,2013-01-06 05:21:00,
2013-01-05 21:26:00,42.7,39.3,30.09,SSE,158,1.8,1.8,88,0.01,,,0.17,WUHU216HW,2013-01-06 05:26:00,
2013-01-05 21:52:00,42.5,39.5,30.09,SE,135,0.2,1.1,89,0.01,,,0.17,WUHU216HW,2013-01-06 05:52:00,
2013-01-05 21:57:00,42.5,39.5,30.09,NNW,338,0.4,1.6,89,0.01,,,0.17,WUHU216HW,2013-01-06 05:57:00,
2013-01-05 22:02:00,42.5,39.5,30.09,NE,45,0.0,1.6,89,0.01,,,0.17,WUHU216HW,2013-01-06 06:02:00,
2013-01-05 22:07:00,42.5,39.5,30.09,SE,135,0.0,0.7,89,0.00,,,0.17,WUHU216HW,2013-01-06 06:07:00,
2013-01-05 22:12:00,42.5,39.5,30.09,SSE,158,0.9,1.3,89,0.00,,,0.17,WUHU216HW,2013-01-06 06:12:00,
2013-01-05 22:17:00,42.5,39.5,30.09,NNW,338,0.2,1.3,89,0.00,,,0.17,WUHU216HW,2013-01-06 06:17:00,
2013-01-05 22:22:00,42.5,39.5,30.09,NW,315,1.1,1.3,89,0.00,,,0.17,WUHU216HW,2013-01-06 06:22:00,
2013-01-05 22:27:00,42.5,39.5,30.10,NNE,23,1.1,1.8,89,0.00,,,0.17,WUHU216HW,2013-01-06 06:27:00,
2013-01-05 22:32:00,42.5,39.5,30.10,WNW,293,0.9,1.8,89,0.00,,,0.17,WUHU216HW,2013-01-06 06:32:00,
2013-01-05 22:37:00,42.3,39.3,30.10,SSW,203,1.1,1.8,89,0.00,,,0.17,WUHU216HW,2013-01-06 06:37:00,
2013-01-05 22:42:00,42.1,39.2,30.10,SW,225,1.6,3.1,89,0.00,,,0.17,WUHU216HW,2013-01-06 06:42:00,
2013-01-05 22:47:00,41.9,39.0,30.09,SE,135,2.5,3.1,89,0.00,,,0.17,WUHU216HW,2013-01-06 06:47:00,
2013-01-05 22:52:00,41.6,38.6,30.10,SE,135,0.4,3.8,89,0.00,,,0.17,WUHU216HW,2013-01-06 06:52:00,
2013-01-05 22:57:00,41.4,38.4,30.10,NE,45,1.3,3.8,89,0.00,,,0.17,WUHU216HW,2013-01-06 06:57:00,
2013-01-05 23:02:00,41.0,38.1,30.10,SSW,203,1.6,3.1,89,0.00,,,0.17,WUHU216HW,2013-01-06 07:02:00,
2013-01-05 23:07:00,40.7,37.7,30.10,SSE,158,2.0,3.1,89,0.00,,,0.17,WUHU216HW,2013-01-06 07:07:00,
2013-01-05 23:12:00,40.5,37.5,30.10,WSW,248,2.2,2.2,89,0.00,,,0.17,WUHU216HW,2013-01-06 07:12:00,
2013-01-05 23:17:00,40.1,37.2,30.10,ESE,113,1.1,2.2,89,0.00,,,0.17,WUHU216HW,2013-01-06 07:17:00,
2013-01-05 23:22:00,40.0,37.0,30.10,SE,135,1.3,2.2,89,0.00,,,0.17,WUHU216HW,2013-01-06 07:22:00,
2013-01-05 23:27:00,39.8,36.8,30.10,SE,135,0.9,1.6,89,0.00,,,0.17,WUHU216HW,2013-01-06 07:27:00,
2013-01-05 23:32:00,39.6,36.6,30.10,SSE,158,1.8,1.8,89,0.00,,,0.17,WUHU216HW,2013-01-06 07:32:00,
2013-01-05 23:37:00,39.4,36.5,30.10,ESE,113,1.1,2.0,89,0.00,,,0.17,WUHU216HW,2013-01-06 07:37:00,
2013-01-05 23:42:00,39.2,36.3,30.10,ESE,113,1.6,2.0,89,0.00,,,0.17,WUHU216HW,2013-01-06 07:42:00,
2013-01-05 23:47:00,39.2,36.3,30.10,East,90,2.5,2.5,89,0.00,,,0.17,WUHU216HW,2013-01-06 07:47:00,
2013-01-05 23:52:00,39.1,36.1,30.10,ENE,68,1.6,2.5,89,0.00,,,0.17,WUHU216HW,2013-01-06 07:52:00,
2013-01-05 23:57:00,38.9,36.2,30.10,ENE,68,1.6,2.2,90,0.00,,,0.17,WUHU216HW,2013-01-06 07:57:00,